Eden Mills, Vermont
Current Conditions -  °F | °C
As of 3:15 PM on Monday 24 Nov 2014 (Local Time) from KEFK Reporting Station
Overcast Overcast  
Wind Chill: 55°   Ceiling: 2300
Heat Index: 55°   Visibility: 10mi
Dew Point: 53°   Wind: 7mph
Humidity: 94%   Direction: 160°SSE
Pressure: 29.42"   Gusts: NA
Location:  44.71°N, 72.55°W
Report Text: KEFK 242015Z AUTO 16006KT 10SM BKN023 BKN030 OVC060 13/12 A2942 RMK AO2 T01270117
Loading
Personal Weather Stations






























Interactive Weather Map New forecast layout! Learn more

10-Day Weather Forecast

Advertisements
Track Severe Weather on mobile